GLRB Airport Information

Runway Information
Runway 04 Length 11000 ft width 150 ft
Elevation 29 ft Threshold 0 ft Heading 31
Runway 22 Length 11000 ft Width 150 ft
Elevation 25 ft Threshold 1200 ft Heading 211
Airport Frequencies
Type A/G Name A/G VOICE Frequency 345.2 MHZ
Type APP Name ROBERTS AP Frequency 124.5 MHZ
Type GND Name GND Frequency 121.9 MHZ
Type TWR Name ROBERTS TW Frequency 118.3 MHZ
Airport Navaids
Type NDB Name Monrovia Roberts Frequency 263 KHZ
Type NDB Name Monrovia Roberts Frequency 372 KHZ
Type VOR-DME Name Monrovia Roberts Frequency 113800 KHZ
Airport Weather Information & NOTAM
ADDS - METARS form results

(1042 UTC 22 February 2019)
Data provider http://aviationweather.gov/metar/data/
 
METAR text: GLRB 221000Z 00000KT 9000 FEW013 28/25 Q1014 RMK BRVC
Conditions at: GLRB (ROBERTS INTL/MON, LR) observed 1000 UTC 22 February 2019
Temperature: 28.0°C (82°F)
Dewpoint: 25.0°C (77°F) [RH = 84%]
Pressure (altimeter): 29.94 inches Hg (1014.0 mb)
Winds: calm
Visibility: 6 miles ( 9 km)
Ceiling: at least 12,000 feet AGL
Clouds: few clouds at 1300 feet AGL
Weather: no significant weather observed at this time